Time;durP1;ratioP1;P1;durP2;ratioP2;P2;SDS_P1;SDS_P2;PMS_P1;PMS_P2;Temp;Humidity;BMP_temperature;BMP_pressure;BME280_temperature;BME280_humidity;BME280_pressure;Samples;Min_cycle;Max_cycle;Signal;HPM_P1;HPM_P2
2022/02/05 00:02:48;;;;;;;9.70;7.22;;;;;;;;;;5116485;28;20188;-63
2022/02/05 00:05:18;;;;;;;7.30;5.88;;;;;;;;;;5116536;28;20279;-64
2022/02/05 00:07:56;;;;;;;10.57;6.03;;;;;;;;;;5115848;28;20186;-63
2022/02/05 00:13:32;;;;;;;12.27;6.75;;;;;;;;;;5115890;28;20316;-62
2022/02/05 00:16:13;;;;;;;11.10;6.47;;;;;;;;;;5116086;28;20185;-62
2022/02/05 00:38:21;;;;;;;9.00;5.85;;;;;;;;;;5115540;28;20173;-63
2022/02/05 00:40:55;;;;;;;16.90;7.05;;;;;;;;;;5115820;28;20543;-63
2022/02/05 00:43:23;;;;;;;12.75;8.35;;;;;;;;;;5115261;28;20187;-62
2022/02/05 00:45:53;;;;;;;10.90;6.80;;;;;;;;;;5115055;28;20195;-62
2022/02/05 00:48:21;;;;;;;14.43;7.07;;;;;;;;;;5115751;28;20191;-62
2022/02/05 00:50:52;;;;;;;10.23;5.93;;;;;;;;;;5115169;28;20270;-63
2022/02/05 00:53:30;;;;;;;6.80;5.95;;;;;;;;;;5115016;27;20190;-62
2022/02/05 00:56:07;;;;;;;10.52;5.53;;;;;;;;;;5115319;28;20265;-63
2022/02/05 00:58:38;;;;;;;6.95;6.25;;;;;;;;;;5115242;28;20561;-62
2022/02/05 01:01:05;;;;;;;12.00;8.30;;;;;;;;;;5115191;28;20584;-63
2022/02/05 01:03:33;;;;;;;10.43;6.60;;;;;;;;;;5115133;28;20200;-62
2022/02/05 01:06:01;;;;;;;15.32;7.78;;;;;;;;;;5115108;28;20217;-62
2022/02/05 01:08:29;;;;;;;8.93;7.60;;;;;;;;;;5114945;28;20282;-62
2022/02/05 01:10:56;;;;;;;11.52;7.10;;;;;;;;;;5114819;28;20559;-62
2022/02/05 01:13:26;;;;;;;10.88;5.80;;;;;;;;;;5114570;28;20742;-62
2022/02/05 01:16:02;;;;;;;13.10;7.13;;;;;;;;;;5115126;28;20258;-62
2022/02/05 01:18:30;;;;;;;6.82;5.15;;;;;;;;;;5115339;28;20181;-62
2022/02/05 01:23:46;;;;;;;9.82;5.60;;;;;;;;;;5114613;28;20655;-62
2022/02/05 01:26:20;;;;;;;9.80;6.05;;;;;;;;;;5114800;28;20184;-61
2022/02/05 01:28:54;;;;;;;9.48;5.32;;;;;;;;;;5114305;28;20188;-62
2022/02/05 01:31:27;;;;;;;9.43;6.47;;;;;;;;;;5115430;28;20296;-62
2022/02/05 01:34:05;;;;;;;12.85;6.38;;;;;;;;;;5114566;28;20220;-62
2022/02/05 01:39:27;;;;;;;9.55;5.20;;;;;;;;;;5113704;28;20700;-62
2022/02/05 01:50:57;;;;;;;5.78;3.72;;;;;;;;;;5114070;28;20209;-62
2022/02/05 01:53:34;;;;;;;6.32;4.70;;;;;;;;;;5114267;28;20627;-62
2022/02/05 01:58:56;;;;;;;10.02;5.88;;;;;;;;;;5101415;28;20531;-62
2022/02/05 02:07:08;;;;;;;6.68;5.97;;;;;;;;;;5114184;28;20266;-62
2022/02/05 02:09:48;;;;;;;11.88;7.05;;;;;;;;;;5114565;28;20208;-62
2022/02/05 02:12:19;;;;;;;10.93;5.07;;;;;;;;;;5114300;28;20189;-62
2022/02/05 02:14:54;;;;;;;10.82;5.38;;;;;;;;;;5113647;28;20233;-62
2022/02/05 02:20:49;;;;;;;10.30;4.38;;;;;;;;;;5113928;28;20645;-62
2022/02/05 02:23:30;;;;;;;6.50;5.78;;;;;;;;;;5114236;28;20198;-62
2022/02/05 02:26:04;;;;;;;7.10;6.50;;;;;;;;;;5113595;28;20192;-61
2022/02/05 02:28:43;;;;;;;13.40;7.07;;;;;;;;;;5113606;28;20220;-62
2022/02/05 02:31:16;;;;;;;15.60;7.82;;;;;;;;;;5113492;28;20248;-61
2022/02/05 02:33:47;;;;;;;7.18;6.47;;;;;;;;;;5113528;28;20186;-61
2022/02/05 02:36:24;;;;;;;13.98;8.27;;;;;;;;;;5114268;28;20202;-61
2022/02/05 02:38:57;;;;;;;11.90;6.45;;;;;;;;;;5114575;28;20547;-62
2022/02/05 02:41:28;;;;;;;12.07;6.70;;;;;;;;;;5114314;28;20210;-62
2022/02/05 02:43:55;;;;;;;9.98;6.65;;;;;;;;;;5113424;28;20189;-62
2022/02/05 02:46:23;;;;;;;11.90;7.75;;;;;;;;;;5113725;28;20235;-61
2022/02/05 02:48:50;;;;;;;8.70;6.65;;;;;;;;;;5115579;28;20219;-62
2022/02/05 02:56:58;;;;;;;11.15;5.82;;;;;;;;;;5117406;28;20179;-62
2022/02/05 02:59:29;;;;;;;11.93;6.70;;;;;;;;;;5117281;28;20196;-62
2022/02/05 03:02:08;;;;;;;9.45;6.45;;;;;;;;;;5117979;28;20185;-62
2022/02/05 03:04:36;;;;;;;6.85;5.00;;;;;;;;;;5117177;28;20281;-63
2022/02/05 03:07:03;;;;;;;18.88;7.78;;;;;;;;;;5117355;28;20235;-62
2022/02/05 03:09:32;;;;;;;11.10;6.10;;;;;;;;;;5117684;28;20193;-62
2022/02/05 03:11:59;;;;;;;13.45;6.78;;;;;;;;;;5117521;28;20236;-63
2022/02/05 03:14:26;;;;;;;14.52;6.95;;;;;;;;;;5117503;28;20603;-62
2022/02/05 03:17:01;;;;;;;13.30;6.03;;;;;;;;;;5117530;28;20204;-62
2022/02/05 03:19:28;;;;;;;9.15;5.80;;;;;;;;;;5117613;28;20597;-63
2022/02/05 03:21:56;;;;;;;13.73;5.32;;;;;;;;;;5117034;28;20291;-61
2022/02/05 03:24:23;;;;;;;10.10;6.30;;;;;;;;;;5117866;28;20278;-62
2022/02/05 03:26:51;;;;;;;8.77;6.47;;;;;;;;;;5116673;28;20218;-62
2022/02/05 03:29:19;;;;;;;10.20;6.78;;;;;;;;;;5116898;28;20198;-62
2022/02/05 03:31:46;;;;;;;14.35;6.50;;;;;;;;;;5116808;28;20243;-62
2022/02/05 03:34:13;;;;;;;22.73;6.55;;;;;;;;;;5116609;28;20227;-61
2022/02/05 03:36:41;;;;;;;7.07;5.45;;;;;;;;;;5116537;28;20231;-63
2022/02/05 03:39:08;;;;;;;11.90;6.68;;;;;;;;;;5116742;28;20244;-61
2022/02/05 03:41:36;;;;;;;7.85;5.07;;;;;;;;;;5116671;28;20203;-62
2022/02/05 03:44:05;;;;;;;13.98;8.07;;;;;;;;;;5116687;28;20194;-61
2022/02/05 03:46:32;;;;;;;12.77;7.72;;;;;;;;;;5116238;28;20286;-62
2022/02/05 03:48:59;;;;;;;10.18;6.75;;;;;;;;;;5116542;28;20286;-62
2022/02/05 03:51:27;;;;;;;9.25;7.10;;;;;;;;;;5116554;28;20250;-62
2022/02/05 03:53:54;;;;;;;8.55;5.72;;;;;;;;;;5116395;28;20264;-62
2022/02/05 03:56:21;;;;;;;7.22;5.45;;;;;;;;;;5116397;28;20193;-62
2022/02/05 03:58:48;;;;;;;12.13;7.00;;;;;;;;;;5116051;28;20283;-61
2022/02/05 04:01:17;;;;;;;11.48;5.88;;;;;;;;;;5116279;28;20762;-61
2022/02/05 04:03:44;;;;;;;7.70;5.95;;;;;;;;;;5116342;28;20289;-62
2022/02/05 04:06:11;;;;;;;6.40;5.75;;;;;;;;;;5116031;28;20226;-64
2022/02/05 04:08:39;;;;;;;14.18;5.75;;;;;;;;;;5115841;28;20295;-62
2022/02/05 04:11:10;;;;;;;10.20;6.28;;;;;;;;;;5116125;28;20309;-62
2022/02/05 04:16:24;;;;;;;11.45;6.32;;;;;;;;;;5116216;28;20229;-62
2022/02/05 04:18:54;;;;;;;8.95;6.07;;;;;;;;;;5115642;28;20663;-62
2022/02/05 04:21:21;;;;;;;7.40;5.57;;;;;;;;;;5115748;28;20203;-62
2022/02/05 04:23:49;;;;;;;11.63;7.25;;;;;;;;;;5115834;28;20199;-62
2022/02/05 04:26:16;;;;;;;7.25;5.90;;;;;;;;;;5115478;28;20214;-62
2022/02/05 04:28:44;;;;;;;10.75;5.82;;;;;;;;;;5115781;28;20224;-62
2022/02/05 04:31:11;;;;;;;7.28;4.75;;;;;;;;;;5116003;28;20215;-62
2022/02/05 04:33:40;;;;;;;10.25;6.53;;;;;;;;;;5115366;28;20672;-63
2022/02/05 04:36:08;;;;;;;5.82;4.82;;;;;;;;;;5116071;28;20227;-63
2022/02/05 04:38:37;;;;;;;7.25;6.03;;;;;;;;;;5116092;28;20240;-62
2022/02/05 04:41:09;;;;;;;8.18;5.60;;;;;;;;;;5115647;28;20701;-62
2022/02/05 04:46:50;;;;;;;6.75;4.60;;;;;;;;;;5112773;28;20197;-63
2022/02/05 04:52:26;;;;;;;9.07;6.28;;;;;;;;;;5115129;28;20210;-62
2022/02/05 04:55:13;;;;;;;17.45;5.68;;;;;;;;;;5115411;28;20208;-62
2022/02/05 04:57:55;;;;;;;6.15;4.80;;;;;;;;;;5115471;28;20271;-63
2022/02/05 05:03:25;;;;;;;12.75;5.57;;;;;;;;;;5104134;28;20208;-62
2022/02/05 05:06:11;;;;;;;9.65;6.28;;;;;;;;;;5114778;28;20222;-62
2022/02/05 05:08:49;;;;;;;9.07;5.40;;;;;;;;;;5115660;28;20184;-62
2022/02/05 05:11:42;;;;;;;18.67;5.68;;;;;;;;;;5114589;28;20693;-62
2022/02/05 05:19:46;;;;;;;14.10;6.05;;;;;;;;;;5080646;28;20193;-63
2022/02/05 05:22:15;;;;;;;12.20;6.47;;;;;;;;;;5115296;28;20245;-62
2022/02/05 05:24:43;;;;;;;10.73;5.35;;;;;;;;;;5114721;28;20194;-62
2022/02/05 05:27:10;;;;;;;12.90;7.10;;;;;;;;;;5114705;28;20204;-63
2022/02/05 05:29:38;;;;;;;12.02;5.78;;;;;;;;;;5114305;28;20199;-62
2022/02/05 05:32:06;;;;;;;8.65;5.55;;;;;;;;;;5113751;28;20573;-63
2022/02/05 05:34:33;;;;;;;12.77;5.60;;;;;;;;;;5113687;28;20644;-63
2022/02/05 05:37:02;;;;;;;13.48;5.25;;;;;;;;;;5113765;28;20190;-64
2022/02/05 05:39:32;;;;;;;18.33;7.05;;;;;;;;;;5113755;28;20570;-64
2022/02/05 05:41:59;;;;;;;8.63;4.82;;;;;;;;;;5113947;28;20256;-63
2022/02/05 05:44:52;;;;;;;22.00;7.50;;;;;;;;;;5114356;28;20199;-62
2022/02/05 05:47:33;;;;;;;12.73;5.50;;;;;;;;;;5114286;28;20202;-63
2022/02/05 05:50:10;;;;;;;18.15;6.30;;;;;;;;;;5114778;28;20673;-63
2022/02/05 05:52:37;;;;;;;12.52;6.00;;;;;;;;;;5114405;28;20674;-62
2022/02/05 05:55:06;;;;;;;7.90;6.50;;;;;;;;;;5113891;28;20560;-62
2022/02/05 05:57:34;;;;;;;13.18;6.05;;;;;;;;;;5114960;28;20196;-62
2022/02/05 06:00:01;;;;;;;8.43;5.70;;;;;;;;;;5114101;28;20198;-62
2022/02/05 06:02:29;;;;;;;8.93;6.43;;;;;;;;;;5113550;28;20236;-62
2022/02/05 06:04:56;;;;;;;11.57;4.95;;;;;;;;;;5113356;28;20236;-63
2022/02/05 06:07:23;;;;;;;6.53;4.65;;;;;;;;;;5113958;28;20238;-63
2022/02/05 06:09:50;;;;;;;10.70;6.70;;;;;;;;;;5113755;28;20280;-63
2022/02/05 06:12:20;;;;;;;15.65;6.40;;;;;;;;;;5114058;28;20304;-62
2022/02/05 06:14:47;;;;;;;11.35;6.40;;;;;;;;;;5114029;28;20253;-62
2022/02/05 06:17:22;;;;;;;10.93;6.07;;;;;;;;;;5113944;28;20203;-62
2022/02/05 06:19:49;;;;;;;13.25;6.55;;;;;;;;;;5113709;28;20177;-64
2022/02/05 06:22:17;;;;;;;16.17;6.65;;;;;;;;;;5114826;28;20201;-62
2022/02/05 06:24:44;;;;;;;10.45;6.60;;;;;;;;;;5118223;28;20200;-62
2022/02/05 06:27:11;;;;;;;17.83;10.18;;;;;;;;;;5117953;28;20195;-61
2022/02/05 06:29:40;;;;;;;5.57;4.35;;;;;;;;;;5118125;28;20554;-62
2022/02/05 06:32:08;;;;;;;11.73;7.78;;;;;;;;;;5117465;28;20218;-63
2022/02/05 06:34:35;;;;;;;10.15;7.10;;;;;;;;;;5117960;28;20194;-61
2022/02/05 06:37:02;;;;;;;10.57;6.18;;;;;;;;;;5118276;28;20210;-63
2022/02/05 06:39:29;;;;;;;13.25;7.57;;;;;;;;;;5117996;28;20227;-63
2022/02/05 06:41:57;;;;;;;12.88;7.32;;;;;;;;;;5117673;28;20300;-63
2022/02/05 06:44:24;;;;;;;11.43;6.47;;;;;;;;;;5117791;28;20205;-62
2022/02/05 06:46:52;;;;;;;11.40;6.00;;;;;;;;;;5117275;28;20199;-62
2022/02/05 06:49:25;;;;;;;10.70;4.97;;;;;;;;;;5117662;28;20193;-63
2022/02/05 06:51:52;;;;;;;10.50;7.60;;;;;;;;;;5117830;28;20211;-63
2022/02/05 06:54:19;;;;;;;8.57;5.95;;;;;;;;;;5117599;28;20199;-63
2022/02/05 06:56:47;;;;;;;11.60;6.53;;;;;;;;;;5117477;28;20279;-63
2022/02/05 06:59:23;;;;;;;12.57;6.97;;;;;;;;;;5117622;28;20226;-63
2022/02/05 07:01:52;;;;;;;14.60;7.82;;;;;;;;;;5117605;28;20210;-63
2022/02/05 07:04:24;;;;;;;8.93;5.45;;;;;;;;;;5117238;28;20725;-62
2022/02/05 07:06:54;;;;;;;24.65;6.03;;;;;;;;;;5116877;28;20232;-62
2022/02/05 07:09:22;;;;;;;9.23;6.03;;;;;;;;;;5116985;28;20189;-63
2022/02/05 07:11:58;;;;;;;12.93;7.50;;;;;;;;;;5117187;28;20259;-63
2022/02/05 07:14:33;;;;;;;14.38;5.88;;;;;;;;;;5116989;28;20269;-63
2022/02/05 07:17:08;;;;;;;12.10;6.70;;;;;;;;;;5117619;28;20185;-62
2022/02/05 07:19:51;;;;;;;9.55;6.63;;;;;;;;;;5117130;28;20185;-62
2022/02/05 07:22:18;;;;;;;13.27;5.57;;;;;;;;;;5117140;28;20642;-62
2022/02/05 07:29:12;;;;;;;9.48;6.43;;;;;;;;;;5116619;28;20708;-63
2022/02/05 07:30:33;;;;;;;14.32;8.23;;;;;;;;;;5116531;28;20207;-62
2022/02/05 07:33:02;;;;;;;10.63;6.22;;;;;;;;;;5116621;28;20299;-62
2022/02/05 07:35:30;;;;;;;9.57;7.22;;;;;;;;;;5116035;28;20608;-62
2022/02/05 07:37:57;;;;;;;10.77;7.38;;;;;;;;;;5116432;28;20225;-62
2022/02/05 07:40:24;;;;;;;11.68;6.57;;;;;;;;;;5116383;28;20193;-62
2022/02/05 07:42:52;;;;;;;9.13;6.35;;;;;;;;;;5116509;28;20278;-62
2022/02/05 07:45:20;;;;;;;9.65;7.03;;;;;;;;;;5117198;28;20234;-62
2022/02/05 07:47:47;;;;;;;8.43;6.30;;;;;;;;;;5116085;28;20193;-63
2022/02/05 07:50:16;;;;;;;11.15;6.10;;;;;;;;;;5116183;28;20201;-62
2022/02/05 07:52:43;;;;;;;11.38;6.10;;;;;;;;;;5116872;28;20305;-63
2022/02/05 07:55:11;;;;;;;9.27;5.80;;;;;;;;;;5116161;28;20539;-63
2022/02/05 07:57:38;;;;;;;8.07;6.18;;;;;;;;;;5116845;28;20607;-62
2022/02/05 08:00:06;;;;;;;12.70;6.90;;;;;;;;;;5116006;28;20236;-62
2022/02/05 08:02:33;;;;;;;12.80;7.40;;;;;;;;;;5116295;28;20231;-62
2022/02/05 08:05:01;;;;;;;5.63;5.07;;;;;;;;;;5115728;28;20212;-62
2022/02/05 08:07:29;;;;;;;12.23;7.32;;;;;;;;;;5116844;28;20204;-62
2022/02/05 08:10:00;;;;;;;13.25;6.30;;;;;;;;;;5116518;28;20203;-62
2022/02/05 08:12:29;;;;;;;10.32;6.35;;;;;;;;;;5116632;28;20201;-63
2022/02/05 08:14:58;;;;;;;10.63;6.65;;;;;;;;;;5116083;28;20261;-62
2022/02/05 08:17:28;;;;;;;9.38;6.10;;;;;;;;;;5115659;28;20199;-62
2022/02/05 08:19:55;;;;;;;10.23;6.07;;;;;;;;;;5116566;28;20181;-62
2022/02/05 08:22:23;;;;;;;22.05;7.68;;;;;;;;;;5115553;28;20199;-62
2022/02/05 08:24:52;;;;;;;8.75;6.00;;;;;;;;;;5115453;28;20195;-63
2022/02/05 08:27:19;;;;;;;9.95;5.85;;;;;;;;;;5115511;28;20232;-62
2022/02/05 08:29:53;;;;;;;10.43;6.95;;;;;;;;;;5115792;28;20233;-63
2022/02/05 08:32:23;;;;;;;9.45;6.07;;;;;;;;;;5115726;28;20601;-63
2022/02/05 08:34:50;;;;;;;12.15;6.65;;;;;;;;;;5115171;28;20193;-62
2022/02/05 08:37:17;;;;;;;14.32;5.95;;;;;;;;;;5115269;28;20197;-62
2022/02/05 08:39:45;;;;;;;12.18;7.45;;;;;;;;;;5116313;28;20316;-63
2022/02/05 08:42:13;;;;;;;12.18;5.97;;;;;;;;;;5115064;28;20204;-62
2022/02/05 08:44:40;;;;;;;12.90;6.15;;;;;;;;;;5115125;28;20264;-63
2022/02/05 08:47:08;;;;;;;10.13;6.45;;;;;;;;;;5114295;28;20282;-62
2022/02/05 08:49:35;;;;;;;6.25;4.63;;;;;;;;;;5115718;28;20614;-62
2022/02/05 08:52:06;;;;;;;10.75;6.50;;;;;;;;;;5114857;28;20213;-62
2022/02/05 08:54:33;;;;;;;14.57;6.20;;;;;;;;;;5115980;28;20187;-63
2022/02/05 08:57:00;;;;;;;6.05;4.78;;;;;;;;;;5114901;28;20206;-67
2022/02/05 08:59:36;;;;;;;13.52;6.20;;;;;;;;;;5115212;28;20248;-63
2022/02/05 09:02:11;;;;;;;15.65;6.63;;;;;;;;;;5115442;28;20214;-64
2022/02/05 09:04:50;;;;;;;8.07;5.05;;;;;;;;;;5114898;28;20193;-63
2022/02/05 09:07:17;;;;;;;11.82;6.43;;;;;;;;;;5115386;28;20241;-68
2022/02/05 09:09:59;;;;;;;10.25;5.38;;;;;;;;;;5114787;28;20286;-63
2022/02/05 09:12:43;;;;;;;13.10;5.72;;;;;;;;;;5115760;28;20207;-62
2022/02/05 09:15:11;;;;;;;7.20;4.82;;;;;;;;;;5114810;28;20194;-63
2022/02/05 09:17:39;;;;;;;11.82;5.90;;;;;;;;;;5114527;28;20285;-63
2022/02/05 09:20:07;;;;;;;18.65;6.10;;;;;;;;;;5114069;28;20199;-63
2022/02/05 09:22:34;;;;;;;9.85;5.63;;;;;;;;;;5114743;28;20194;-62
2022/02/05 09:25:01;;;;;;;5.15;3.53;;;;;;;;;;5114812;28;20642;-63
2022/02/05 09:27:36;;;;;;;10.27;5.50;;;;;;;;;;5114667;28;20576;-63
2022/02/05 09:30:05;;;;;;;17.33;6.40;;;;;;;;;;5114867;28;20182;-63
2022/02/05 09:32:33;;;;;;;13.27;5.43;;;;;;;;;;5115257;28;20245;-63
2022/02/05 09:35:02;;;;;;;8.70;5.55;;;;;;;;;;5114507;28;20195;-63
2022/02/05 09:37:29;;;;;;;10.80;4.60;;;;;;;;;;5115075;28;20279;-63
2022/02/05 09:39:56;;;;;;;7.85;5.53;;;;;;;;;;5114244;28;20283;-63
2022/02/05 09:42:24;;;;;;;9.48;4.32;;;;;;;;;;5114712;28;20285;-62
2022/02/05 09:44:51;;;;;;;10.27;4.60;;;;;;;;;;5113750;28;20224;-63
2022/02/05 09:47:18;;;;;;;10.02;7.18;;;;;;;;;;5114712;28;20279;-62
2022/02/05 09:49:47;;;;;;;11.40;6.05;;;;;;;;;;5114343;28;20198;-63
2022/02/05 09:52:24;;;;;;;5.70;4.63;;;;;;;;;;5114411;28;20214;-63
2022/02/05 09:54:51;;;;;;;7.13;4.53;;;;;;;;;;5115232;28;20214;-63
2022/02/05 09:57:19;;;;;;;8.52;4.80;;;;;;;;;;5115092;28;20589;-63
2022/02/05 09:59:48;;;;;;;8.40;5.07;;;;;;;;;;5114432;28;20254;-63
2022/02/05 10:02:19;;;;;;;9.75;5.72;;;;;;;;;;5113990;28;20209;-63
2022/02/05 10:04:54;;;;;;;4.20;3.05;;;;;;;;;;5113712;28;20232;-63
2022/02/05 10:07:22;;;;;;;16.85;4.80;;;;;;;;;;5114040;28;20578;-63
2022/02/05 10:10:00;;;;;;;6.25;4.18;;;;;;;;;;5113430;28;20194;-64
2022/02/05 10:12:28;;;;;;;12.18;5.03;;;;;;;;;;5113260;28;20301;-63
2022/02/05 10:14:56;;;;;;;7.18;3.92;;;;;;;;;;5113912;28;20202;-62
2022/02/05 10:17:37;;;;;;;7.30;3.85;;;;;;;;;;5114638;28;20196;-63
2022/02/05 10:20:06;;;;;;;7.63;5.18;;;;;;;;;;5113927;28;20191;-62
2022/02/05 10:22:37;;;;;;;11.98;4.88;;;;;;;;;;5114474;28;20287;-62
2022/02/05 10:25:15;;;;;;;13.25;6.43;;;;;;;;;;5113585;28;20248;-63
2022/02/05 10:27:43;;;;;;;12.02;4.22;;;;;;;;;;5113694;28;20271;-63
2022/02/05 10:30:11;;;;;;;8.48;5.38;;;;;;;;;;5114162;28;20196;-63
2022/02/05 10:32:42;;;;;;;14.00;4.90;;;;;;;;;;5113451;28;20312;-63
2022/02/05 10:35:22;;;;;;;6.22;5.30;;;;;;;;;;5113472;28;20191;-63
2022/02/05 10:37:54;;;;;;;7.75;5.00;;;;;;;;;;5113422;28;20699;-63
2022/02/05 10:40:23;;;;;;;13.25;5.43;;;;;;;;;;5113699;28;20567;-64
2022/02/05 10:43:03;;;;;;;18.67;5.78;;;;;;;;;;5113683;28;20200;-62
2022/02/05 10:45:41;;;;;;;8.00;4.40;;;;;;;;;;5113444;28;20275;-63
2022/02/05 10:48:09;;;;;;;8.48;5.47;;;;;;;;;;5113804;28;20270;-62
2022/02/05 10:50:38;;;;;;;6.45;4.47;;;;;;;;;;5113696;28;20196;-63
2022/02/05 10:53:11;;;;;;;14.00;6.00;;;;;;;;;;5113429;28;20272;-63
2022/02/05 10:55:45;;;;;;;11.52;6.20;;;;;;;;;;5113795;28;20296;-63
2022/02/05 10:58:21;;;;;;;11.45;5.10;;;;;;;;;;5113668;28;20574;-62
2022/02/05 11:06:20;;;;;;;13.30;5.53;;;;;;;;;;5113489;28;20279;-63
2022/02/05 11:08:47;;;;;;;13.30;6.65;;;;;;;;;;5113266;28;20294;-63
2022/02/05 11:19:31;;;;;;;8.85;5.70;;;;;;;;;;5059247;28;20244;-63
2022/02/05 11:21:59;;;;;;;8.10;4.75;;;;;;;;;;5117231;28;20184;-62
2022/02/05 11:24:30;;;;;;;7.00;4.85;;;;;;;;;;5116692;28;20202;-62
2022/02/05 11:26:58;;;;;;;16.20;5.32;;;;;;;;;;5116706;28;20195;-63
2022/02/05 11:29:32;;;;;;;9.73;5.32;;;;;;;;;;5116944;28;20256;-62
2022/02/05 11:32:17;;;;;;;7.13;5.13;;;;;;;;;;5117081;28;20271;-62
2022/02/05 11:34:49;;;;;;;5.82;4.07;;;;;;;;;;5116467;28;20281;-63
2022/02/05 11:37:18;;;;;;;8.10;3.72;;;;;;;;;;5117455;28;20277;-63
2022/02/05 11:39:47;;;;;;;9.05;5.82;;;;;;;;;;5116677;28;20617;-62
2022/02/05 11:42:28;;;;;;;5.82;4.68;;;;;;;;;;5116608;28;20204;-63
2022/02/05 11:44:56;;;;;;;8.02;4.75;;;;;;;;;;5116311;28;20231;-63
2022/02/05 11:47:33;;;;;;;9.88;4.63;;;;;;;;;;5116445;28;20236;-63
2022/02/05 11:50:19;;;;;;;17.15;6.28;;;;;;;;;;5116364;28;20190;-63
2022/02/05 11:52:57;;;;;;;5.90;3.70;;;;;;;;;;5117003;28;20269;-63
2022/02/05 11:55:32;;;;;;;6.22;3.90;;;;;;;;;;5116447;28;20707;-63
2022/02/05 11:58:00;;;;;;;11.07;6.50;;;;;;;;;;5116288;28;20232;-63
2022/02/05 12:00:32;;;;;;;15.43;5.35;;;;;;;;;;5108879;28;20548;-63
2022/02/05 12:03:01;;;;;;;6.53;4.65;;;;;;;;;;5099756;28;20227;-64
2022/02/05 12:05:31;;;;;;;4.07;3.50;;;;;;;;;;5100479;28;20220;-63
2022/02/05 12:08:22;;;;;;;7.47;4.93;;;;;;;;;;5115299;28;20183;-62
2022/02/05 12:10:51;;;;;;;7.25;4.35;;;;;;;;;;5115917;28;20186;-64
2022/02/05 12:13:20;;;;;;;4.90;4.38;;;;;;;;;;5115841;28;20268;-63
2022/02/05 12:15:48;;;;;;;9.20;3.50;;;;;;;;;;5115960;28;20651;-63
2022/02/05 12:18:23;;;;;;;8.57;3.58;;;;;;;;;;5116201;28;20196;-63
2022/02/05 12:21:06;;;;;;;3.70;2.63;;;;;;;;;;5115141;28;20202;-63
2022/02/05 12:24:20;;;;;;;6.18;3.03;;;;;;;;;;5115327;28;20190;-64
2022/02/05 12:26:47;;;;;;;5.22;3.42;;;;;;;;;;5115786;28;20202;-63
2022/02/05 12:29:30;;;;;;;12.43;4.60;;;;;;;;;;5115357;28;20276;-65
2022/02/05 12:31:58;;;;;;;12.98;3.42;;;;;;;;;;5115817;28;20576;-63
2022/02/05 12:34:33;;;;;;;6.15;3.78;;;;;;;;;;5115056;28;20576;-63
2022/02/05 12:37:03;;;;;;;7.97;3.28;;;;;;;;;;5114596;28;20282;-62
2022/02/05 12:39:31;;;;;;;11.85;4.00;;;;;;;;;;5115500;28;20195;-63
2022/02/05 12:42:00;;;;;;;6.13;2.80;;;;;;;;;;5115847;28;20199;-63
2022/02/05 12:44:29;;;;;;;6.60;3.00;;;;;;;;;;5115688;28;20237;-63
2022/02/05 12:47:00;;;;;;;5.20;3.10;;;;;;;;;;5114828;28;20195;-64
2022/02/05 12:49:31;;;;;;;6.50;3.05;;;;;;;;;;5115198;28;20188;-65
2022/02/05 12:52:00;;;;;;;5.50;3.20;;;;;;;;;;5115526;28;20186;-63
2022/02/05 12:54:29;;;;;;;11.13;4.13;;;;;;;;;;5115219;28;20250;-63
2022/02/05 12:56:57;;;;;;;7.90;3.10;;;;;;;;;;5115173;28;20194;-64
2022/02/05 12:59:31;;;;;;;10.85;3.85;;;;;;;;;;5114407;28;20199;-63
2022/02/05 13:01:59;;;;;;;5.53;3.40;;;;;;;;;;5115308;28;20624;-62
2022/02/05 13:04:28;;;;;;;5.85;3.30;;;;;;;;;;5114707;28;20204;-63
2022/02/05 13:07:03;;;;;;;3.80;2.83;;;;;;;;;;5114744;28;20232;-63
2022/02/05 13:09:31;;;;;;;3.08;2.75;;;;;;;;;;5115080;28;20250;-63
2022/02/05 13:12:01;;;;;;;5.97;3.25;;;;;;;;;;5114893;28;20212;-63
2022/02/05 13:14:37;;;;;;;7.95;3.10;;;;;;;;;;5114655;28;20681;-62
2022/02/05 13:17:05;;;;;;;12.88;3.13;;;;;;;;;;5114511;28;20671;-63
2022/02/05 13:19:51;;;;;;;6.97;3.15;;;;;;;;;;5114143;28;20287;-63
2022/02/05 13:28:06;;;;;;;2.60;2.40;;;;;;;;;;5114171;28;20209;-63
2022/02/05 13:36:09;;;;;;;8.93;4.38;;;;;;;;;;5114558;28;20205;-63
2022/02/05 13:38:49;;;;;;;5.90;2.85;;;;;;;;;;5114217;28;20278;-63
2022/02/05 13:41:16;;;;;;;4.35;2.78;;;;;;;;;;5115239;28;20272;-63
2022/02/05 13:43:55;;;;;;;4.82;2.30;;;;;;;;;;5113974;28;20211;-63
2022/02/05 13:46:24;;;;;;;5.07;2.70;;;;;;;;;;5114349;28;20190;-63
2022/02/05 13:48:51;;;;;;;8.10;3.40;;;;;;;;;;5113708;28;20651;-63
2022/02/05 13:51:19;;;;;;;2.47;2.05;;;;;;;;;;5114197;28;20233;-64
2022/02/05 13:53:49;;;;;;;11.43;3.10;;;;;;;;;;5113838;28;20496;-63
2022/02/05 13:56:17;;;;;;;5.28;2.63;;;;;;;;;;5114080;28;20222;-64
2022/02/05 13:58:44;;;;;;;7.85;3.67;;;;;;;;;;5113745;28;20259;-64
2022/02/05 14:01:26;;;;;;;4.63;3.28;;;;;;;;;;5113853;28;20202;-66
2022/02/05 14:03:55;;;;;;;9.27;3.33;;;;;;;;;;5114326;28;20194;-65
2022/02/05 14:06:28;;;;;;;9.05;2.92;;;;;;;;;;5113780;28;20224;-65
2022/02/05 14:08:58;;;;;;;3.97;2.92;;;;;;;;;;5114657;28;20192;-65
2022/02/05 14:11:29;;;;;;;13.93;3.05;;;;;;;;;;5114408;28;20605;-65
2022/02/05 14:13:57;;;;;;;3.95;2.70;;;;;;;;;;5113271;28;20215;-65
2022/02/05 14:16:29;;;;;;;8.55;3.45;;;;;;;;;;5114373;28;20200;-65
2022/02/05 14:19:00;;;;;;;8.48;2.90;;;;;;;;;;5113268;28;20651;-66
2022/02/05 14:21:32;;;;;;;9.35;3.00;;;;;;;;;;5115502;28;20194;-66
2022/02/05 14:23:59;;;;;;;7.75;2.92;;;;;;;;;;5114633;28;20230;-66
2022/02/05 14:26:36;;;;;;;5.88;2.30;;;;;;;;;;5113387;28;20194;-66
2022/02/05 14:29:05;;;;;;;12.13;3.08;;;;;;;;;;5113470;28;20186;-65
2022/02/05 14:31:33;;;;;;;3.47;2.47;;;;;;;;;;5113773;28;20202;-65
2022/02/05 14:34:15;;;;;;;18.13;3.28;;;;;;;;;;5113652;28;20753;-65
2022/02/05 14:42:15;;;;;;;6.35;2.90;;;;;;;;;;5113488;28;20232;-66
2022/02/05 14:44:43;;;;;;;8.48;2.78;;;;;;;;;;5117076;28;20305;-66
2022/02/05 14:47:11;;;;;;;4.63;2.25;;;;;;;;;;5117206;28;20205;-65
2022/02/05 14:49:39;;;;;;;8.88;3.03;;;;;;;;;;5117176;28;20206;-65
2022/02/05 14:52:10;;;;;;;4.85;2.63;;;;;;;;;;5116761;28;20200;-65
2022/02/05 14:54:37;;;;;;;5.35;2.35;;;;;;;;;;5116925;28;20212;-65
2022/02/05 14:57:04;;;;;;;10.40;3.42;;;;;;;;;;5117551;28;20235;-65
2022/02/05 14:59:32;;;;;;;3.00;2.67;;;;;;;;;;5116821;28;20196;-66
2022/02/05 15:02:00;;;;;;;8.43;2.80;;;;;;;;;;5117243;28;20197;-65
2022/02/05 15:04:27;;;;;;;4.28;1.90;;;;;;;;;;5117152;28;20289;-66
2022/02/05 15:06:55;;;;;;;4.28;2.75;;;;;;;;;;5117074;28;20223;-65
2022/02/05 15:09:23;;;;;;;5.13;2.63;;;;;;;;;;5117341;28;20205;-64
2022/02/05 15:11:50;;;;;;;10.07;3.25;;;;;;;;;;5117143;28;20660;-66
2022/02/05 15:14:17;;;;;;;6.68;3.08;;;;;;;;;;5117128;28;20267;-65
2022/02/05 15:16:45;;;;;;;7.43;3.60;;;;;;;;;;5117223;28;20196;-65
2022/02/05 15:19:13;;;;;;;3.97;2.50;;;;;;;;;;5117014;28;20594;-66
2022/02/05 15:21:41;;;;;;;6.05;2.40;;;;;;;;;;5116705;28;20231;-66
2022/02/05 15:24:10;;;;;;;7.97;3.00;;;;;;;;;;5117480;28;20249;-65
2022/02/05 15:26:38;;;;;;;4.30;2.05;;;;;;;;;;5116729;28;20252;-65
2022/02/05 15:29:06;;;;;;;7.25;2.90;;;;;;;;;;5116618;28;20224;-65
2022/02/05 15:31:34;;;;;;;5.43;2.22;;;;;;;;;;5116705;28;20238;-66
2022/02/05 15:34:03;;;;;;;5.28;2.60;;;;;;;;;;5116622;28;20257;-67
2022/02/05 15:36:37;;;;;;;4.47;3.67;;;;;;;;;;5116229;28;20194;-65
2022/02/05 15:39:12;;;;;;;8.25;3.50;;;;;;;;;;5116378;28;20192;-65
2022/02/05 15:44:26;;;;;;;5.28;3.13;;;;;;;;;;5116466;28;20648;-67
2022/02/05 15:46:54;;;;;;;6.30;2.30;;;;;;;;;;5116222;28;20264;-65
2022/02/05 15:49:21;;;;;;;7.00;2.80;;;;;;;;;;5118008;28;20191;-66
2022/02/05 15:51:48;;;;;;;5.82;3.03;;;;;;;;;;5116677;28;20201;-65
2022/02/05 15:54:16;;;;;;;5.78;2.95;;;;;;;;;;5115874;28;20823;-66
2022/02/05 15:56:54;;;;;;;9.73;3.03;;;;;;;;;;5115394;28;20200;-65
2022/02/05 15:59:27;;;;;;;8.38;2.92;;;;;;;;;;5115947;28;20191;-66
2022/02/05 16:01:54;;;;;;;6.60;3.10;;;;;;;;;;5116219;28;20223;-66
2022/02/05 16:04:22;;;;;;;8.10;2.17;;;;;;;;;;5116499;28;20200;-66
2022/02/05 16:06:50;;;;;;;8.57;2.25;;;;;;;;;;5115921;28;20338;-65
2022/02/05 16:09:18;;;;;;;13.68;3.22;;;;;;;;;;5116236;28;20285;-65
2022/02/05 16:11:46;;;;;;;8.60;2.50;;;;;;;;;;5116159;28;20235;-65
2022/02/05 16:14:14;;;;;;;9.55;3.05;;;;;;;;;;5116125;28;20262;-66
2022/02/05 16:16:41;;;;;;;4.03;2.40;;;;;;;;;;5115991;28;20195;-65
2022/02/05 16:19:08;;;;;;;2.17;2.05;;;;;;;;;;5115533;28;20285;-66
2022/02/05 16:21:35;;;;;;;7.72;2.92;;;;;;;;;;5115683;28;20596;-65
2022/02/05 16:24:04;;;;;;;5.72;2.55;;;;;;;;;;5115614;28;20234;-65
2022/02/05 16:26:31;;;;;;;2.63;2.35;;;;;;;;;;5115399;28;20205;-65
2022/02/05 16:28:59;;;;;;;6.05;2.72;;;;;;;;;;5115444;28;20671;-66
2022/02/05 16:31:27;;;;;;;13.73;3.15;;;;;;;;;;5115558;28;20234;-65
2022/02/05 16:33:57;;;;;;;5.82;2.90;;;;;;;;;;5115313;28;20214;-65
2022/02/05 16:36:30;;;;;;;2.65;2.45;;;;;;;;;;5115448;28;20204;-65
2022/02/05 16:38:57;;;;;;;4.07;2.78;;;;;;;;;;5115269;28;20194;-65
2022/02/05 16:41:25;;;;;;;4.10;2.22;;;;;;;;;;5115465;28;20194;-66
2022/02/05 16:43:53;;;;;;;3.95;2.55;;;;;;;;;;5115171;28;20210;-66
2022/02/05 16:46:22;;;;;;;6.72;2.78;;;;;;;;;;5115091;28;20235;-66
2022/02/05 16:48:50;;;;;;;3.20;2.25;;;;;;;;;;5116198;28;20597;-66